sensor_id;sensor_type;location;lat;lon;timestamp;pressure;altitude;pressure_sealevel;temperature;humidity
61573;BME280;47465;43.094;12.434;2023-08-20T00:00:29;98843.13;;;22.65;70.22
61573;BME280;47465;43.094;12.434;2023-08-20T00:02:58;98842.94;;;22.80;69.26
61573;BME280;47465;43.094;12.434;2023-08-20T00:05:25;98854.06;;;22.88;69.01
61573;BME280;47465;43.094;12.434;2023-08-20T00:07:51;98855.75;;;23.02;67.72
61573;BME280;47465;43.094;12.434;2023-08-20T00:10:17;98848.81;;;22.97;68.48
61573;BME280;47465;43.094;12.434;2023-08-20T00:12:43;98833.75;;;22.93;68.25
61573;BME280;47465;43.094;12.434;2023-08-20T00:15:10;98838.03;;;22.85;68.44
61573;BME280;47465;43.094;12.434;2023-08-20T00:17:38;98824.13;;;22.89;66.29
61573;BME280;47465;43.094;12.434;2023-08-20T00:20:07;98839.16;;;22.93;67.86
61573;BME280;47465;43.094;12.434;2023-08-20T00:22:39;98829.91;;;22.85;68.35
61573;BME280;47465;43.094;12.434;2023-08-20T00:25:06;98836.53;;;22.81;68.64
61573;BME280;47465;43.094;12.434;2023-08-20T00:27:32;98830.44;;;22.66;69.29
61573;BME280;47465;43.094;12.434;2023-08-20T00:29:58;98836.31;;;22.60;69.68
61573;BME280;47465;43.094;12.434;2023-08-20T00:32:25;98847.44;;;22.68;69.01
61573;BME280;47465;43.094;12.434;2023-08-20T00:34:51;98838.41;;;22.56;68.19
61573;BME280;47465;43.094;12.434;2023-08-20T00:37:17;98844.22;;;22.63;67.63
61573;BME280;47465;43.094;12.434;2023-08-20T00:39:43;98831.78;;;22.60;69.02
61573;BME280;47465;43.094;12.434;2023-08-20T00:42:09;98822.75;;;22.60;69.07
61573;BME280;47465;43.094;12.434;2023-08-20T00:44:35;98835.75;;;22.67;69.47
61573;BME280;47465;43.094;12.434;2023-08-20T00:47:01;98840.31;;;22.67;70.43
61573;BME280;47465;43.094;12.434;2023-08-20T00:49:30;98816.19;;;22.27;72.61
61573;BME280;47465;43.094;12.434;2023-08-20T00:51:57;98828.53;;;22.31;74.26
61573;BME280;47465;43.094;12.434;2023-08-20T00:54:28;98829.28;;;22.20;74.79
61573;BME280;47465;43.094;12.434;2023-08-20T00:56:54;98836.91;;;22.15;75.78
61573;BME280;47465;43.094;12.434;2023-08-20T00:59:20;98822.94;;;22.08;73.53
61573;BME280;47465;43.094;12.434;2023-08-20T01:01:46;98828.59;;;22.42;71.16
61573;BME280;47465;43.094;12.434;2023-08-20T01:04:12;98826.81;;;22.54;70.22
61573;BME280;47465;43.094;12.434;2023-08-20T01:06:45;98826.75;;;22.67;68.37
61573;BME280;47465;43.094;12.434;2023-08-20T01:09:18;98837.88;;;22.75;68.78
61573;BME280;47465;43.094;12.434;2023-08-20T01:11:51;98822.69;;;22.72;67.42
61573;BME280;47465;43.094;12.434;2023-08-20T01:14:17;98845.03;;;23.00;66.36
61573;BME280;47465;43.094;12.434;2023-08-20T01:16:44;98839.41;;;22.90;68.15
61573;BME280;47465;43.094;12.434;2023-08-20T01:19:13;98838.03;;;23.20;64.24
61573;BME280;47465;43.094;12.434;2023-08-20T01:21:50;98838.28;;;23.17;65.68
61573;BME280;47465;43.094;12.434;2023-08-20T01:24:25;98836.81;;;23.24;64.11
61573;BME280;47465;43.094;12.434;2023-08-20T01:27:08;98837.47;;;23.28;64.15
61573;BME280;47465;43.094;12.434;2023-08-20T01:29:38;98826.63;;;23.39;62.83
61573;BME280;47465;43.094;12.434;2023-08-20T01:32:05;98830.81;;;23.43;63.43
61573;BME280;47465;43.094;12.434;2023-08-20T01:34:31;98837.94;;;23.33;65.65
61573;BME280;47465;43.094;12.434;2023-08-20T01:36:57;98838.19;;;23.19;66.33
61573;BME280;47465;43.094;12.434;2023-08-20T01:39:23;98840.63;;;23.10;66.46
61573;BME280;47465;43.094;12.434;2023-08-20T01:41:49;98848.47;;;23.02;67.25
61573;BME280;47465;43.094;12.434;2023-08-20T01:44:14;98839.13;;;22.82;68.27
61573;BME280;47465;43.094;12.434;2023-08-20T01:46:42;98830.78;;;22.61;69.76
61573;BME280;47465;43.094;12.434;2023-08-20T01:49:08;98836.66;;;22.55;70.95
61573;BME280;47465;43.094;12.434;2023-08-20T01:51:34;98835.66;;;22.45;71.21
61573;BME280;47465;43.094;12.434;2023-08-20T01:54:02;98829.63;;;22.28;72.50
61573;BME280;47465;43.094;12.434;2023-08-20T01:56:28;98833.31;;;22.27;73.19
61573;BME280;47465;43.094;12.434;2023-08-20T01:58:53;98841.13;;;22.19;74.80
61573;BME280;47465;43.094;12.434;2023-08-20T02:01:19;98849.16;;;22.08;76.15
61573;BME280;47465;43.094;12.434;2023-08-20T02:03:46;98820.94;;;21.86;77.15
61573;BME280;47465;43.094;12.434;2023-08-20T02:06:12;98846.38;;;21.84;78.54
61573;BME280;47465;43.094;12.434;2023-08-20T02:08:38;98837.53;;;21.69;79.99
61573;BME280;47465;43.094;12.434;2023-08-20T02:11:04;98840.47;;;21.53;81.86
61573;BME280;47465;43.094;12.434;2023-08-20T02:13:30;98830.28;;;21.44;83.67
61573;BME280;47465;43.094;12.434;2023-08-20T02:16:00;98841.97;;;21.44;86.10
61573;BME280;47465;43.094;12.434;2023-08-20T02:18:26;98829.59;;;21.40;87.70
61573;BME280;47465;43.094;12.434;2023-08-20T02:20:53;98817.06;;;21.13;90.15
61573;BME280;47465;43.094;12.434;2023-08-20T02:23:19;98837.84;;;21.26;90.47
61573;BME280;47465;43.094;12.434;2023-08-20T02:25:46;98848.66;;;21.39;89.62
61573;BME280;47465;43.094;12.434;2023-08-20T02:28:12;98813.69;;;21.10;91.97
61573;BME280;47465;43.094;12.434;2023-08-20T02:30:40;98820.00;;;21.23;91.78
61573;BME280;47465;43.094;12.434;2023-08-20T02:33:06;98831.88;;;21.33;91.36
61573;BME280;47465;43.094;12.434;2023-08-20T02:35:32;98835.00;;;21.27;92.18
61573;BME280;47465;43.094;12.434;2023-08-20T02:37:59;98825.84;;;21.30;91.83
61573;BME280;47465;43.094;12.434;2023-08-20T02:40:25;98824.31;;;21.26;91.99
61573;BME280;47465;43.094;12.434;2023-08-20T02:42:50;98825.16;;;21.13;94.16
61573;BME280;47465;43.094;12.434;2023-08-20T02:45:16;98820.38;;;20.91;96.55
61573;BME280;47465;43.094;12.434;2023-08-20T02:47:42;98820.28;;;20.93;98.22
61573;BME280;47465;43.094;12.434;2023-08-20T02:50:09;98827.31;;;20.96;98.20
61573;BME280;47465;43.094;12.434;2023-08-20T02:52:34;98837.13;;;20.97;99.01
61573;BME280;47465;43.094;12.434;2023-08-20T02:55:02;98841.91;;;20.93;99.29
61573;BME280;47465;43.094;12.434;2023-08-20T02:57:30;98830.94;;;20.82;100.00
61573;BME280;47465;43.094;12.434;2023-08-20T02:59:55;98843.50;;;20.83;100.00
61573;BME280;47465;43.094;12.434;2023-08-20T03:02:21;98836.78;;;20.76;100.00
61573;BME280;47465;43.094;12.434;2023-08-20T03:04:47;98825.94;;;20.63;100.00
61573;BME280;47465;43.094;12.434;2023-08-20T03:07:13;98828.69;;;20.76;100.00
61573;BME280;47465;43.094;12.434;2023-08-20T03:09:39;98827.03;;;20.73;100.00
61573;BME280;47465;43.094;12.434;2023-08-20T03:12:07;98835.41;;;20.96;100.00
61573;BME280;47465;43.094;12.434;2023-08-20T03:14:33;98849.47;;;21.01;100.00
61573;BME280;47465;43.094;12.434;2023-08-20T03:16:59;98835.75;;;20.91;100.00
61573;BME280;47465;43.094;12.434;2023-08-20T03:19:25;98840.69;;;20.84;100.00
61573;BME280;47465;43.094;12.434;2023-08-20T03:21:50;98830.19;;;20.67;100.00
61573;BME280;47465;43.094;12.434;2023-08-20T03:24:16;98843.16;;;20.75;100.00
61573;BME280;47465;43.094;12.434;2023-08-20T03:26:42;98844.91;;;20.76;100.00
61573;BME280;47465;43.094;12.434;2023-08-20T03:29:09;98838.50;;;20.77;100.00
61573;BME280;47465;43.094;12.434;2023-08-20T03:31:35;98838.16;;;20.68;100.00
61573;BME280;47465;43.094;12.434;2023-08-20T03:34:01;98834.69;;;20.66;100.00
61573;BME280;47465;43.094;12.434;2023-08-20T03:36:27;98829.34;;;20.52;100.00
61573;BME280;47465;43.094;12.434;2023-08-20T03:38:53;98839.38;;;20.50;100.00
61573;BME280;47465;43.094;12.434;2023-08-20T03:41:18;98840.91;;;20.54;100.00
61573;BME280;47465;43.094;12.434;2023-08-20T03:43:44;98834.81;;;20.65;100.00
61573;BME280;47465;43.094;12.434;2023-08-20T03:46:11;98836.16;;;20.85;100.00
61573;BME280;47465;43.094;12.434;2023-08-20T03:48:37;98833.28;;;20.61;100.00
61573;BME280;47465;43.094;12.434;2023-08-20T03:51:03;98853.34;;;20.57;100.00
61573;BME280;47465;43.094;12.434;2023-08-20T03:53:29;98852.38;;;20.58;100.00
61573;BME280;47465;43.094;12.434;2023-08-20T03:55:54;98845.63;;;20.65;100.00
61573;BME280;47465;43.094;12.434;2023-08-20T03:58:20;98852.66;;;20.67;100.00
61573;BME280;47465;43.094;12.434;2023-08-20T04:00:46;98846.88;;;20.59;100.00
61573;BME280;47465;43.094;12.434;2023-08-20T04:03:13;98843.78;;;20.51;100.00
61573;BME280;47465;43.094;12.434;2023-08-20T04:05:39;98844.00;;;20.48;100.00
61573;BME280;47465;43.094;12.434;2023-08-20T04:08:06;98861.16;;;20.61;100.00
61573;BME280;47465;43.094;12.434;2023-08-20T04:10:31;98829.75;;;20.46;100.00
61573;BME280;47465;43.094;12.434;2023-08-20T04:12:58;98856.66;;;20.75;100.00
61573;BME280;47465;43.094;12.434;2023-08-20T04:15:24;98854.22;;;20.84;100.00
61573;BME280;47465;43.094;12.434;2023-08-20T04:17:50;98859.53;;;20.99;100.00
61573;BME280;47465;43.094;12.434;2023-08-20T04:20:17;98836.59;;;20.91;100.00
61573;BME280;47465;43.094;12.434;2023-08-20T04:22:43;98844.19;;;21.12;100.00
61573;BME280;47465;43.094;12.434;2023-08-20T04:25:09;98839.22;;;21.31;100.00
61573;BME280;47465;43.094;12.434;2023-08-20T04:27:35;98847.28;;;21.46;100.00
61573;BME280;47465;43.094;12.434;2023-08-20T04:30:00;98839.59;;;21.52;100.00
61573;BME280;47465;43.094;12.434;2023-08-20T04:32:26;98846.09;;;21.63;100.00
61573;BME280;47465;43.094;12.434;2023-08-20T04:34:52;98859.19;;;21.69;100.00
61573;BME280;47465;43.094;12.434;2023-08-20T04:37:21;98836.47;;;21.59;100.00
61573;BME280;47465;43.094;12.434;2023-08-20T04:39:47;98848.03;;;21.61;100.00
61573;BME280;47465;43.094;12.434;2023-08-20T04:42:12;98830.81;;;21.36;100.00
61573;BME280;47465;43.094;12.434;2023-08-20T04:44:38;98849.22;;;21.57;100.00
61573;BME280;47465;43.094;12.434;2023-08-20T04:47:04;98843.59;;;21.72;100.00
61573;BME280;47465;43.094;12.434;2023-08-20T04:49:30;98855.16;;;21.87;100.00
61573;BME280;47465;43.094;12.434;2023-08-20T04:51:55;98852.09;;;21.92;100.00
61573;BME280;47465;43.094;12.434;2023-08-20T04:54:23;98854.06;;;21.90;100.00
61573;BME280;47465;43.094;12.434;2023-08-20T04:56:48;98846.09;;;21.76;100.00
61573;BME280;47465;43.094;12.434;2023-08-20T04:59:14;98836.22;;;21.62;100.00
61573;BME280;47465;43.094;12.434;2023-08-20T05:01:40;98851.94;;;21.57;100.00
61573;BME280;47465;43.094;12.434;2023-08-20T05:04:06;98831.06;;;21.46;100.00
61573;BME280;47465;43.094;12.434;2023-08-20T05:06:32;98853.34;;;21.49;100.00
61573;BME280;47465;43.094;12.434;2023-08-20T05:08:57;98860.06;;;21.44;100.00
61573;BME280;47465;43.094;12.434;2023-08-20T05:11:25;98870.34;;;21.51;100.00
61573;BME280;47465;43.094;12.434;2023-08-20T05:13:51;98861.56;;;21.48;100.00
61573;BME280;47465;43.094;12.434;2023-08-20T05:16:16;98854.75;;;21.42;100.00
61573;BME280;47465;43.094;12.434;2023-08-20T05:18:42;98847.03;;;21.23;100.00
61573;BME280;47465;43.094;12.434;2023-08-20T05:21:08;98876.25;;;21.31;100.00
61573;BME280;47465;43.094;12.434;2023-08-20T05:23:36;98876.81;;;21.36;100.00
61573;BME280;47465;43.094;12.434;2023-08-20T05:26:02;98871.25;;;21.25;100.00
61573;BME280;47465;43.094;12.434;2023-08-20T05:28:29;98874.97;;;21.37;100.00
61573;BME280;47465;43.094;12.434;2023-08-20T05:30:55;98849.53;;;21.39;100.00
61573;BME280;47465;43.094;12.434;2023-08-20T05:33:22;98857.34;;;21.57;100.00
61573;BME280;47465;43.094;12.434;2023-08-20T05:35:48;98875.09;;;21.86;100.00
61573;BME280;47465;43.094;12.434;2023-08-20T05:38:14;98869.13;;;21.94;100.00
61573;BME280;47465;43.094;12.434;2023-08-20T05:40:40;98868.97;;;22.21;100.00
61573;BME280;47465;43.094;12.434;2023-08-20T05:43:06;98886.94;;;22.59;100.00
61573;BME280;47465;43.094;12.434;2023-08-20T05:45:33;98870.28;;;22.76;100.00
61573;BME280;47465;43.094;12.434;2023-08-20T05:47:59;98873.75;;;23.03;100.00
61573;BME280;47465;43.094;12.434;2023-08-20T05:50:25;98876.94;;;23.32;100.00
61573;BME280;47465;43.094;12.434;2023-08-20T05:52:52;98874.97;;;23.45;100.00
61573;BME280;47465;43.094;12.434;2023-08-20T05:55:18;98873.88;;;23.59;98.60
61573;BME280;47465;43.094;12.434;2023-08-20T05:57:44;98889.03;;;23.86;96.55
61573;BME280;47465;43.094;12.434;2023-08-20T06:00:10;98891.00;;;24.06;90.90
61573;BME280;47465;43.094;12.434;2023-08-20T06:02:38;98899.47;;;24.24;88.58
61573;BME280;47465;43.094;12.434;2023-08-20T06:05:05;98877.25;;;24.30;85.87
61573;BME280;47465;43.094;12.434;2023-08-20T06:07:31;98886.84;;;24.46;82.21
61573;BME280;47465;43.094;12.434;2023-08-20T06:09:57;98873.78;;;24.39;80.93
61573;BME280;47465;43.094;12.434;2023-08-20T06:12:23;98902.94;;;24.60;82.81
61573;BME280;47465;43.094;12.434;2023-08-20T06:14:49;98890.84;;;24.53;80.10
61573;BME280;47465;43.094;12.434;2023-08-20T06:17:15;98889.72;;;24.55;80.07
61573;BME280;47465;43.094;12.434;2023-08-20T06:19:42;98897.59;;;24.70;78.08
61573;BME280;47465;43.094;12.434;2023-08-20T06:22:08;98891.06;;;24.61;79.83
61573;BME280;47465;43.094;12.434;2023-08-20T06:24:34;98895.41;;;24.64;77.39
61573;BME280;47465;43.094;12.434;2023-08-20T06:27:00;98884.38;;;24.65;76.80
61573;BME280;47465;43.094;12.434;2023-08-20T06:29:25;98900.47;;;24.89;76.93
61573;BME280;47465;43.094;12.434;2023-08-20T06:31:51;98885.25;;;24.98;76.90
61573;BME280;47465;43.094;12.434;2023-08-20T06:34:17;98874.34;;;25.09;77.01
61573;BME280;47465;43.094;12.434;2023-08-20T06:36:44;98883.13;;;25.01;75.32
61573;BME280;47465;43.094;12.434;2023-08-20T06:39:10;98877.41;;;25.05;77.15
61573;BME280;47465;43.094;12.434;2023-08-20T06:41:36;98894.69;;;25.15;76.88
61573;BME280;47465;43.094;12.434;2023-08-20T06:44:02;98877.41;;;25.37;76.01
61573;BME280;47465;43.094;12.434;2023-08-20T06:46:28;98891.44;;;25.74;72.33
61573;BME280;47465;43.094;12.434;2023-08-20T06:48:54;98897.03;;;26.03;71.19
61573;BME280;47465;43.094;12.434;2023-08-20T06:51:21;98896.53;;;26.19;70.20
61573;BME280;47465;43.094;12.434;2023-08-20T06:53:48;98900.56;;;26.25;70.39
61573;BME280;47465;43.094;12.434;2023-08-20T06:56:15;98889.81;;;25.93;71.47
61573;BME280;47465;43.094;12.434;2023-08-20T07:02:00;98899.78;;;26.44;69.88
61573;BME280;47465;43.094;12.434;2023-08-20T07:04:26;98897.56;;;26.69;67.12
61573;BME280;47465;43.094;12.434;2023-08-20T07:06:52;98905.34;;;26.93;71.87
61573;BME280;47465;43.094;12.434;2023-08-20T07:09:19;98897.00;;;26.75;67.63
61573;BME280;47465;43.094;12.434;2023-08-20T07:11:45;98884.78;;;26.89;68.31
61573;BME280;47465;43.094;12.434;2023-08-20T07:14:10;98867.28;;;27.01;67.46
61573;BME280;47465;43.094;12.434;2023-08-20T07:16:36;98886.28;;;27.41;65.65
61573;BME280;47465;43.094;12.434;2023-08-20T07:19:02;98872.84;;;27.68;63.36
61573;BME280;47465;43.094;12.434;2023-08-20T07:21:28;98874.41;;;27.70;62.83
61573;BME280;47465;43.094;12.434;2023-08-20T07:23:54;98878.84;;;27.71;62.33
61573;BME280;47465;43.094;12.434;2023-08-20T07:26:21;98897.56;;;27.85;62.52
61573;BME280;47465;43.094;12.434;2023-08-20T07:28:47;98871.31;;;28.02;61.32
61573;BME280;47465;43.094;12.434;2023-08-20T07:31:40;98893.47;;;27.99;59.96
61573;BME280;47465;43.094;12.434;2023-08-20T07:34:06;98888.31;;;27.96;60.94
61573;BME280;47465;43.094;12.434;2023-08-20T07:36:32;98880.81;;;27.98;61.09
61573;BME280;47465;43.094;12.434;2023-08-20T07:38:59;98884.44;;;28.26;58.54
61573;BME280;47465;43.094;12.434;2023-08-20T07:44:17;98888.06;;;28.55;56.03
61573;BME280;47465;43.094;12.434;2023-08-20T07:46:43;98891.38;;;28.21;58.08
61573;BME280;47465;43.094;12.434;2023-08-20T07:49:09;98871.13;;;28.41;58.82
61573;BME280;47465;43.094;12.434;2023-08-20T07:51:35;98881.63;;;28.74;59.21
61573;BME280;47465;43.094;12.434;2023-08-20T07:54:00;98883.59;;;28.54;57.51
61573;BME280;47465;43.094;12.434;2023-08-20T07:56:26;98879.44;;;28.50;56.86
61573;BME280;47465;43.094;12.434;2023-08-20T07:58:52;98879.63;;;28.66;57.88
61573;BME280;47465;43.094;12.434;2023-08-20T08:01:19;98890.69;;;28.92;55.97
61573;BME280;47465;43.094;12.434;2023-08-20T08:03:45;98883.66;;;29.07;56.05
61573;BME280;47465;43.094;12.434;2023-08-20T08:06:11;98876.09;;;29.19;55.03
61573;BME280;47465;43.094;12.434;2023-08-20T08:08:43;98881.56;;;29.19;53.40
61573;BME280;47465;43.094;12.434;2023-08-20T08:11:10;98888.03;;;29.00;55.11
61573;BME280;47465;43.094;12.434;2023-08-20T08:13:35;98890.69;;;28.92;55.73
61573;BME280;47465;43.094;12.434;2023-08-20T08:16:01;98875.25;;;28.55;57.19
61573;BME280;47465;43.094;12.434;2023-08-20T08:18:29;98887.56;;;28.87;55.85
61573;BME280;47465;43.094;12.434;2023-08-20T08:20:55;98891.41;;;29.12;55.03
61573;BME280;47465;43.094;12.434;2023-08-20T08:23:21;98876.03;;;29.11;54.19
61573;BME280;47465;43.094;12.434;2023-08-20T08:25:46;98891.75;;;29.09;53.80
61573;BME280;47465;43.094;12.434;2023-08-20T08:28:12;98883.09;;;29.40;53.75
61573;BME280;47465;43.094;12.434;2023-08-20T08:30:38;98877.09;;;29.62;53.45
61573;BME280;47465;43.094;12.434;2023-08-20T08:33:08;98870.22;;;29.76;54.96
61573;BME280;47465;43.094;12.434;2023-08-20T08:35:35;98883.31;;;29.90;53.39
61573;BME280;47465;43.094;12.434;2023-08-20T08:38:01;98871.66;;;29.88;52.76
61573;BME280;47465;43.094;12.434;2023-08-20T08:40:30;98863.03;;;30.09;51.41
61573;BME280;47465;43.094;12.434;2023-08-20T08:42:56;98867.81;;;30.07;50.54
61573;BME280;47465;43.094;12.434;2023-08-20T08:45:22;98861.31;;;30.08;50.63
61573;BME280;47465;43.094;12.434;2023-08-20T08:47:49;98874.88;;;30.18;50.29
61573;BME280;47465;43.094;12.434;2023-08-20T08:50:15;98866.16;;;30.23;50.58
61573;BME280;47465;43.094;12.434;2023-08-20T08:52:45;98880.19;;;30.12;49.33
61573;BME280;47465;43.094;12.434;2023-08-20T08:55:11;98868.34;;;30.11;49.67
61573;BME280;47465;43.094;12.434;2023-08-20T08:57:38;98857.94;;;30.23;50.39
61573;BME280;47465;43.094;12.434;2023-08-20T09:00:05;98873.16;;;30.43;49.28
61573;BME280;47465;43.094;12.434;2023-08-20T09:02:31;98864.25;;;30.15;50.58
61573;BME280;47465;43.094;12.434;2023-08-20T09:04:57;98849.59;;;29.98;49.00
61573;BME280;47465;43.094;12.434;2023-08-20T09:07:23;98853.25;;;30.07;49.37
61573;BME280;47465;43.094;12.434;2023-08-20T09:09:56;98864.72;;;30.37;48.46
61573;BME280;47465;43.094;12.434;2023-08-20T09:12:22;98861.13;;;30.44;48.44
61573;BME280;47465;43.094;12.434;2023-08-20T09:14:51;98876.75;;;30.44;47.91
61573;BME280;47465;43.094;12.434;2023-08-20T09:17:17;98866.63;;;30.44;48.41
61573;BME280;47465;43.094;12.434;2023-08-20T09:19:45;98862.69;;;30.47;48.29
61573;BME280;47465;43.094;12.434;2023-08-20T09:22:11;98857.94;;;30.65;47.42
61573;BME280;47465;43.094;12.434;2023-08-20T09:24:40;98848.22;;;30.87;47.86
61573;BME280;47465;43.094;12.434;2023-08-20T09:27:13;98848.09;;;31.14;46.62
61573;BME280;47465;43.094;12.434;2023-08-20T09:29:46;98858.59;;;31.43;46.28
61573;BME280;47465;43.094;12.434;2023-08-20T09:32:17;98867.81;;;31.33;44.19
61573;BME280;47465;43.094;12.434;2023-08-20T09:34:43;98857.69;;;31.18;44.35
61573;BME280;47465;43.094;12.434;2023-08-20T09:37:09;98854.41;;;30.89;45.00
61573;BME280;47465;43.094;12.434;2023-08-20T09:39:35;98856.13;;;30.99;42.77
61573;BME280;47465;43.094;12.434;2023-08-20T09:42:02;98860.19;;;30.70;42.17
61573;BME280;47465;43.094;12.434;2023-08-20T09:44:32;98846.38;;;31.04;42.25
61573;BME280;47465;43.094;12.434;2023-08-20T09:47:00;98851.16;;;31.27;41.56
61573;BME280;47465;43.094;12.434;2023-08-20T09:49:29;98858.75;;;31.08;41.72
61573;BME280;47465;43.094;12.434;2023-08-20T09:51:56;98862.88;;;31.21;40.77
61573;BME280;47465;43.094;12.434;2023-08-20T09:54:27;98859.75;;;31.07;41.02
61573;BME280;47465;43.094;12.434;2023-08-20T09:57:01;98852.72;;;31.21;40.92
61573;BME280;47465;43.094;12.434;2023-08-20T09:59:29;98846.72;;;31.18;39.04
61573;BME280;47465;43.094;12.434;2023-08-20T10:01:56;98847.34;;;30.79;40.06
61573;BME280;47465;43.094;12.434;2023-08-20T10:04:22;98851.19;;;31.02;40.58
61573;BME280;47465;43.094;12.434;2023-08-20T10:06:49;98849.09;;;30.96;41.32
61573;BME280;47465;43.094;12.434;2023-08-20T10:09:16;98834.00;;;31.33;39.30
61573;BME280;47465;43.094;12.434;2023-08-20T10:11:43;98837.78;;;31.73;38.69
61573;BME280;47465;43.094;12.434;2023-08-20T10:14:09;98845.81;;;31.83;39.39
61573;BME280;47465;43.094;12.434;2023-08-20T10:16:37;98842.38;;;31.72;39.36
61573;BME280;47465;43.094;12.434;2023-08-20T10:19:03;98834.66;;;31.76;38.89
61573;BME280;47465;43.094;12.434;2023-08-20T10:21:29;98844.41;;;32.03;38.74
61573;BME280;47465;43.094;12.434;2023-08-20T10:23:55;98843.59;;;31.62;39.29
61573;BME280;47465;43.094;12.434;2023-08-20T10:26:21;98836.94;;;31.15;39.44
61573;BME280;47465;43.094;12.434;2023-08-20T10:28:49;98824.56;;;31.27;38.62
61573;BME280;47465;43.094;12.434;2023-08-20T10:31:17;98840.22;;;31.43;38.54
61573;BME280;47465;43.094;12.434;2023-08-20T10:33:50;98834.53;;;31.28;40.39
61573;BME280;47465;43.094;12.434;2023-08-20T10:36:20;98828.31;;;31.59;39.77
61573;BME280;47465;43.094;12.434;2023-08-20T10:38:49;98843.13;;;31.50;38.47
61573;BME280;47465;43.094;12.434;2023-08-20T10:41:15;98842.06;;;31.51;39.67
61573;BME280;47465;43.094;12.434;2023-08-20T10:43:46;98838.81;;;31.39;39.42
61573;BME280;47465;43.094;12.434;2023-08-20T10:46:15;98839.69;;;31.64;39.42
61573;BME280;47465;43.094;12.434;2023-08-20T10:48:42;98819.94;;;31.44;38.86
61573;BME280;47465;43.094;12.434;2023-08-20T10:51:14;98825.19;;;31.70;39.40
61573;BME280;47465;43.094;12.434;2023-08-20T10:53:41;98835.69;;;31.75;40.27
61573;BME280;47465;43.094;12.434;2023-08-20T10:56:09;98826.94;;;31.63;39.95
61573;BME280;47465;43.094;12.434;2023-08-20T10:58:36;98820.75;;;31.61;40.10
61573;BME280;47465;43.094;12.434;2023-08-20T11:01:21;98832.72;;;32.01;39.36
61573;BME280;47465;43.094;12.434;2023-08-20T11:03:48;98829.44;;;32.06;39.45
61573;BME280;47465;43.094;12.434;2023-08-20T11:06:16;98820.28;;;31.17;40.31
61573;BME280;47465;43.094;12.434;2023-08-20T11:08:42;98814.25;;;31.54;40.02
61573;BME280;47465;43.094;12.434;2023-08-20T11:11:10;98807.31;;;31.75;38.91
61573;BME280;47465;43.094;12.434;2023-08-20T11:13:37;98814.50;;;32.00;39.98
61573;BME280;47465;43.094;12.434;2023-08-20T11:16:03;98815.38;;;31.92;41.51
61573;BME280;47465;43.094;12.434;2023-08-20T11:18:30;98815.16;;;32.10;41.79
61573;BME280;47465;43.094;12.434;2023-08-20T11:20:57;98807.88;;;32.18;41.31
61573;BME280;47465;43.094;12.434;2023-08-20T11:23:24;98805.66;;;32.21;41.61
61573;BME280;47465;43.094;12.434;2023-08-20T11:25:50;98804.13;;;32.19;41.25
61573;BME280;47465;43.094;12.434;2023-08-20T11:28:16;98804.72;;;32.29;40.26
61573;BME280;47465;43.094;12.434;2023-08-20T11:30:42;98787.38;;;31.81;38.59
61573;BME280;47465;43.094;12.434;2023-08-20T11:33:08;98791.47;;;31.93;39.82
61573;BME280;47465;43.094;12.434;2023-08-20T11:35:35;98805.50;;;32.15;39.40
61573;BME280;47465;43.094;12.434;2023-08-20T11:38:02;98793.03;;;32.27;39.86
61573;BME280;47465;43.094;12.434;2023-08-20T11:40:30;98802.75;;;32.46;40.11
61573;BME280;47465;43.094;12.434;2023-08-20T11:42:56;98791.44;;;32.41;39.38
61573;BME280;47465;43.094;12.434;2023-08-20T11:45:22;98800.16;;;32.44;39.88
61573;BME280;47465;43.094;12.434;2023-08-20T11:47:47;98787.28;;;32.13;39.92
61573;BME280;47465;43.094;12.434;2023-08-20T11:50:13;98785.91;;;32.09;38.84
61573;BME280;47465;43.094;12.434;2023-08-20T11:52:39;98779.13;;;32.28;37.81
61573;BME280;47465;43.094;12.434;2023-08-20T11:55:06;98783.31;;;32.47;38.13
61573;BME280;47465;43.094;12.434;2023-08-20T11:57:33;98788.72;;;32.64;37.94
61573;BME280;47465;43.094;12.434;2023-08-20T12:00:00;98778.47;;;32.58;37.49
61573;BME280;47465;43.094;12.434;2023-08-20T12:02:29;98795.66;;;32.20;37.09
61573;BME280;47465;43.094;12.434;2023-08-20T12:04:56;98772.81;;;32.20;36.78
61573;BME280;47465;43.094;12.434;2023-08-20T12:07:25;98788.03;;;32.30;36.99
61573;BME280;47465;43.094;12.434;2023-08-20T12:09:52;98779.88;;;32.45;36.95
61573;BME280;47465;43.094;12.434;2023-08-20T12:12:19;98772.28;;;32.56;36.37
61573;BME280;47465;43.094;12.434;2023-08-20T12:14:48;98785.56;;;32.44;36.40
61573;BME280;47465;43.094;12.434;2023-08-20T12:17:17;98783.78;;;32.28;35.85
61573;BME280;47465;43.094;12.434;2023-08-20T12:19:43;98778.94;;;32.30;36.51
61573;BME280;47465;43.094;12.434;2023-08-20T12:22:08;98781.06;;;32.20;36.50
61573;BME280;47465;43.094;12.434;2023-08-20T12:24:34;98770.94;;;32.43;36.46
61573;BME280;47465;43.094;12.434;2023-08-20T12:27:00;98779.56;;;32.71;36.22
61573;BME280;47465;43.094;12.434;2023-08-20T12:29:26;98775.34;;;32.29;35.60
61573;BME280;47465;43.094;12.434;2023-08-20T12:31:53;98770.94;;;32.43;36.41
61573;BME280;47465;43.094;12.434;2023-08-20T12:34:19;98779.38;;;32.42;35.18
61573;BME280;47465;43.094;12.434;2023-08-20T12:36:48;98778.94;;;32.30;34.93
61573;BME280;47465;43.094;12.434;2023-08-20T12:39:14;98767.91;;;32.38;35.36
61573;BME280;47465;43.094;12.434;2023-08-20T12:41:40;98758.97;;;32.36;35.88
61573;BME280;47465;43.094;12.434;2023-08-20T12:44:06;98756.63;;;32.48;35.64
61573;BME280;47465;43.094;12.434;2023-08-20T12:46:31;98763.00;;;32.48;35.58
61573;BME280;47465;43.094;12.434;2023-08-20T12:48:59;98762.66;;;32.51;36.39
61573;BME280;47465;43.094;12.434;2023-08-20T12:51:24;98760.66;;;32.68;34.82